sensor_id;sensor_type;location;lat;lon;timestamp;P1;durP1;ratioP1;P2;durP2;ratioP2
73557;SDS011;61829;53.286;10.434;2022-07-23T00:00:14;3.30;;;1.50;;
73557;SDS011;61829;53.286;10.434;2022-07-23T00:03:00;3.60;;;1.52;;
73557;SDS011;61829;53.286;10.434;2022-07-23T00:05:26;3.35;;;1.67;;
73557;SDS011;61829;53.286;10.434;2022-07-23T00:07:52;4.80;;;1.70;;
73557;SDS011;61829;53.286;10.434;2022-07-23T00:10:18;3.92;;;1.58;;
73557;SDS011;61829;53.286;10.434;2022-07-23T00:12:43;5.78;;;1.63;;
73557;SDS011;61829;53.286;10.434;2022-07-23T00:15:10;7.55;;;1.83;;
73557;SDS011;61829;53.286;10.434;2022-07-23T00:17:36;4.65;;;1.98;;
73557;SDS011;61829;53.286;10.434;2022-07-23T00:20:02;3.28;;;1.70;;
73557;SDS011;61829;53.286;10.434;2022-07-23T00:22:29;3.50;;;1.73;;
73557;SDS011;61829;53.286;10.434;2022-07-23T00:24:55;2.97;;;1.70;;
73557;SDS011;61829;53.286;10.434;2022-07-23T00:27:21;3.90;;;1.80;;
73557;SDS011;61829;53.286;10.434;2022-07-23T00:29:47;3.90;;;1.85;;
73557;SDS011;61829;53.286;10.434;2022-07-23T00:32:13;3.55;;;1.67;;
73557;SDS011;61829;53.286;10.434;2022-07-23T00:34:39;4.18;;;1.75;;
73557;SDS011;61829;53.286;10.434;2022-07-23T00:37:05;5.03;;;1.67;;
73557;SDS011;61829;53.286;10.434;2022-07-23T00:39:30;4.90;;;1.60;;
73557;SDS011;61829;53.286;10.434;2022-07-23T00:41:56;6.88;;;1.83;;
73557;SDS011;61829;53.286;10.434;2022-07-23T00:44:26;3.92;;;1.77;;
73557;SDS011;61829;53.286;10.434;2022-07-23T00:46:55;4.78;;;1.73;;
73557;SDS011;61829;53.286;10.434;2022-07-23T00:49:23;6.03;;;1.85;;
73557;SDS011;61829;53.286;10.434;2022-07-23T00:51:51;2.97;;;1.88;;
73557;SDS011;61829;53.286;10.434;2022-07-23T00:54:17;3.88;;;1.42;;
73557;SDS011;61829;53.286;10.434;2022-07-23T00:56:45;2.75;;;1.33;;
73557;SDS011;61829;53.286;10.434;2022-07-23T00:59:12;3.60;;;1.88;;
73557;SDS011;61829;53.286;10.434;2022-07-23T01:01:38;5.80;;;1.92;;
73557;SDS011;61829;53.286;10.434;2022-07-23T01:04:04;3.90;;;1.70;;
73557;SDS011;61829;53.286;10.434;2022-07-23T01:06:30;3.92;;;1.83;;
73557;SDS011;61829;53.286;10.434;2022-07-23T01:09:02;3.25;;;1.55;;
73557;SDS011;61829;53.286;10.434;2022-07-23T01:11:29;6.82;;;1.90;;
73557;SDS011;61829;53.286;10.434;2022-07-23T01:13:56;8.45;;;1.77;;
73557;SDS011;61829;53.286;10.434;2022-07-23T01:16:22;3.63;;;1.58;;
73557;SDS011;61829;53.286;10.434;2022-07-23T01:18:48;4.97;;;1.80;;
73557;SDS011;61829;53.286;10.434;2022-07-23T01:21:13;4.05;;;1.92;;
73557;SDS011;61829;53.286;10.434;2022-07-23T01:23:42;8.52;;;1.85;;
73557;SDS011;61829;53.286;10.434;2022-07-23T01:26:09;4.60;;;2.15;;
73557;SDS011;61829;53.286;10.434;2022-07-23T01:28:34;2.75;;;1.40;;
73557;SDS011;61829;53.286;10.434;2022-07-23T01:31:00;4.65;;;1.52;;
73557;SDS011;61829;53.286;10.434;2022-07-23T01:33:26;5.70;;;1.50;;
73557;SDS011;61829;53.286;10.434;2022-07-23T01:35:52;5.88;;;1.73;;
73557;SDS011;61829;53.286;10.434;2022-07-23T01:38:17;4.85;;;1.90;;
73557;SDS011;61829;53.286;10.434;2022-07-23T01:40:43;4.90;;;2.00;;
73557;SDS011;61829;53.286;10.434;2022-07-23T01:43:09;5.53;;;2.03;;
73557;SDS011;61829;53.286;10.434;2022-07-23T01:45:35;3.30;;;1.70;;
73557;SDS011;61829;53.286;10.434;2022-07-23T01:48:01;3.85;;;1.52;;
73557;SDS011;61829;53.286;10.434;2022-07-23T01:50:26;3.45;;;1.42;;
73557;SDS011;61829;53.286;10.434;2022-07-23T01:52:52;2.92;;;1.50;;
73557;SDS011;61829;53.286;10.434;2022-07-23T01:55:18;4.22;;;1.65;;
73557;SDS011;61829;53.286;10.434;2022-07-23T01:57:44;4.43;;;2.05;;
73557;SDS011;61829;53.286;10.434;2022-07-23T02:00:10;3.95;;;1.77;;
73557;SDS011;61829;53.286;10.434;2022-07-23T02:02:36;3.70;;;1.67;;
73557;SDS011;61829;53.286;10.434;2022-07-23T02:05:02;4.38;;;1.55;;
73557;SDS011;61829;53.286;10.434;2022-07-23T02:07:28;4.53;;;1.40;;
73557;SDS011;61829;53.286;10.434;2022-07-23T02:09:54;5.75;;;1.90;;
73557;SDS011;61829;53.286;10.434;2022-07-23T02:12:20;5.38;;;1.80;;
73557;SDS011;61829;53.286;10.434;2022-07-23T02:14:45;4.88;;;1.90;;
73557;SDS011;61829;53.286;10.434;2022-07-23T02:17:11;5.00;;;1.50;;
73557;SDS011;61829;53.286;10.434;2022-07-23T02:19:37;3.17;;;1.42;;
73557;SDS011;61829;53.286;10.434;2022-07-23T02:22:03;5.68;;;1.63;;
73557;SDS011;61829;53.286;10.434;2022-07-23T02:24:28;6.03;;;1.88;;
73557;SDS011;61829;53.286;10.434;2022-07-23T02:26:54;3.50;;;1.65;;
73557;SDS011;61829;53.286;10.434;2022-07-23T02:29:20;3.10;;;1.48;;
73557;SDS011;61829;53.286;10.434;2022-07-23T02:31:46;4.03;;;1.73;;
73557;SDS011;61829;53.286;10.434;2022-07-23T02:34:11;7.15;;;1.70;;
73557;SDS011;61829;53.286;10.434;2022-07-23T02:36:37;2.10;;;1.33;;
73557;SDS011;61829;53.286;10.434;2022-07-23T02:39:05;6.00;;;1.63;;
73557;SDS011;61829;53.286;10.434;2022-07-23T02:41:31;4.20;;;1.38;;
73557;SDS011;61829;53.286;10.434;2022-07-23T02:43:56;2.30;;;1.17;;
73557;SDS011;61829;53.286;10.434;2022-07-23T02:46:23;1.98;;;1.33;;
73557;SDS011;61829;53.286;10.434;2022-07-23T02:48:48;4.05;;;1.40;;
73557;SDS011;61829;53.286;10.434;2022-07-23T02:51:14;2.75;;;1.30;;
73557;SDS011;61829;53.286;10.434;2022-07-23T02:53:40;2.47;;;1.38;;
73557;SDS011;61829;53.286;10.434;2022-07-23T02:56:06;4.78;;;1.58;;
73557;SDS011;61829;53.286;10.434;2022-07-23T02:58:32;3.90;;;1.60;;
73557;SDS011;61829;53.286;10.434;2022-07-23T03:00:57;2.60;;;1.35;;
73557;SDS011;61829;53.286;10.434;2022-07-23T03:03:23;4.65;;;1.50;;
73557;SDS011;61829;53.286;10.434;2022-07-23T03:05:49;3.65;;;1.50;;
73557;SDS011;61829;53.286;10.434;2022-07-23T03:08:15;4.78;;;1.50;;
73557;SDS011;61829;53.286;10.434;2022-07-23T03:10:40;4.90;;;1.50;;
73557;SDS011;61829;53.286;10.434;2022-07-23T03:13:06;4.53;;;1.60;;
73557;SDS011;61829;53.286;10.434;2022-07-23T03:15:32;4.00;;;1.65;;
73557;SDS011;61829;53.286;10.434;2022-07-23T03:17:58;5.03;;;1.40;;
73557;SDS011;61829;53.286;10.434;2022-07-23T03:20:24;3.38;;;1.50;;
73557;SDS011;61829;53.286;10.434;2022-07-23T03:22:50;3.95;;;1.60;;
73557;SDS011;61829;53.286;10.434;2022-07-23T03:25:15;6.65;;;1.50;;
73557;SDS011;61829;53.286;10.434;2022-07-23T03:27:41;3.33;;;1.63;;
73557;SDS011;61829;53.286;10.434;2022-07-23T03:30:07;4.75;;;1.77;;
73557;SDS011;61829;53.286;10.434;2022-07-23T03:32:33;5.22;;;1.67;;
73557;SDS011;61829;53.286;10.434;2022-07-23T03:34:59;6.13;;;1.50;;
73557;SDS011;61829;53.286;10.434;2022-07-23T03:37:25;4.30;;;1.80;;
73557;SDS011;61829;53.286;10.434;2022-07-23T03:39:51;8.10;;;1.98;;
73557;SDS011;61829;53.286;10.434;2022-07-23T03:42:16;3.67;;;1.90;;
73557;SDS011;61829;53.286;10.434;2022-07-23T03:44:42;3.97;;;1.40;;
73557;SDS011;61829;53.286;10.434;2022-07-23T03:47:08;3.80;;;1.52;;
73557;SDS011;61829;53.286;10.434;2022-07-23T03:49:34;7.07;;;1.98;;
73557;SDS011;61829;53.286;10.434;2022-07-23T03:52:00;9.13;;;2.08;;
73557;SDS011;61829;53.286;10.434;2022-07-23T03:54:26;7.40;;;2.25;;
73557;SDS011;61829;53.286;10.434;2022-07-23T03:56:52;3.83;;;1.73;;
73557;SDS011;61829;53.286;10.434;2022-07-23T03:59:18;5.63;;;1.90;;
73557;SDS011;61829;53.286;10.434;2022-07-23T04:01:43;3.88;;;1.63;;
73557;SDS011;61829;53.286;10.434;2022-07-23T04:04:09;6.45;;;1.90;;
73557;SDS011;61829;53.286;10.434;2022-07-23T04:06:35;4.75;;;1.85;;
73557;SDS011;61829;53.286;10.434;2022-07-23T04:09:01;5.28;;;1.90;;
73557;SDS011;61829;53.286;10.434;2022-07-23T04:11:28;6.05;;;1.73;;
73557;SDS011;61829;53.286;10.434;2022-07-23T04:13:56;6.00;;;1.92;;
73557;SDS011;61829;53.286;10.434;2022-07-23T04:16:22;3.33;;;1.60;;
73557;SDS011;61829;53.286;10.434;2022-07-23T04:18:48;3.85;;;1.67;;
73557;SDS011;61829;53.286;10.434;2022-07-23T04:21:17;3.78;;;1.50;;
73557;SDS011;61829;53.286;10.434;2022-07-23T04:23:43;6.10;;;1.67;;
73557;SDS011;61829;53.286;10.434;2022-07-23T04:26:09;4.68;;;1.88;;
73557;SDS011;61829;53.286;10.434;2022-07-23T04:28:35;6.28;;;1.65;;
73557;SDS011;61829;53.286;10.434;2022-07-23T04:31:00;4.80;;;1.98;;
73557;SDS011;61829;53.286;10.434;2022-07-23T04:33:26;4.60;;;1.80;;
73557;SDS011;61829;53.286;10.434;2022-07-23T04:35:52;3.45;;;1.70;;
73557;SDS011;61829;53.286;10.434;2022-07-23T04:38:18;4.97;;;1.50;;
73557;SDS011;61829;53.286;10.434;2022-07-23T04:40:43;3.95;;;1.67;;
73557;SDS011;61829;53.286;10.434;2022-07-23T04:43:09;7.30;;;1.90;;
73557;SDS011;61829;53.286;10.434;2022-07-23T04:45:35;3.53;;;1.55;;
73557;SDS011;61829;53.286;10.434;2022-07-23T04:48:00;4.40;;;1.75;;
73557;SDS011;61829;53.286;10.434;2022-07-23T04:50:26;4.32;;;1.80;;
73557;SDS011;61829;53.286;10.434;2022-07-23T04:52:52;3.75;;;1.80;;
73557;SDS011;61829;53.286;10.434;2022-07-23T04:55:18;2.72;;;1.58;;
73557;SDS011;61829;53.286;10.434;2022-07-23T04:57:44;6.25;;;1.92;;
73557;SDS011;61829;53.286;10.434;2022-07-23T05:00:10;4.53;;;1.85;;
73557;SDS011;61829;53.286;10.434;2022-07-23T05:05:02;4.63;;;1.63;;
73557;SDS011;61829;53.286;10.434;2022-07-23T05:07:28;5.13;;;2.10;;
73557;SDS011;61829;53.286;10.434;2022-07-23T05:09:54;7.20;;;2.30;;
73557;SDS011;61829;53.286;10.434;2022-07-23T05:12:20;3.70;;;2.00;;
73557;SDS011;61829;53.286;10.434;2022-07-23T05:14:46;5.75;;;2.03;;
73557;SDS011;61829;53.286;10.434;2022-07-23T05:17:11;4.93;;;2.28;;
73557;SDS011;61829;53.286;10.434;2022-07-23T05:19:38;4.88;;;1.95;;
73557;SDS011;61829;53.286;10.434;2022-07-23T05:22:03;3.40;;;1.95;;
73557;SDS011;61829;53.286;10.434;2022-07-23T05:24:29;4.18;;;2.05;;
73557;SDS011;61829;53.286;10.434;2022-07-23T05:26:55;3.65;;;1.88;;
73557;SDS011;61829;53.286;10.434;2022-07-23T05:29:21;3.60;;;2.20;;
73557;SDS011;61829;53.286;10.434;2022-07-23T05:31:47;4.53;;;2.60;;
73557;SDS011;61829;53.286;10.434;2022-07-23T05:34:12;8.43;;;2.10;;
73557;SDS011;61829;53.286;10.434;2022-07-23T05:36:38;4.43;;;1.75;;
73557;SDS011;61829;53.286;10.434;2022-07-23T05:39:04;5.60;;;2.00;;
73557;SDS011;61829;53.286;10.434;2022-07-23T05:41:30;6.78;;;1.83;;
73557;SDS011;61829;53.286;10.434;2022-07-23T05:43:56;5.30;;;1.70;;
73557;SDS011;61829;53.286;10.434;2022-07-23T05:46:21;6.68;;;2.25;;
73557;SDS011;61829;53.286;10.434;2022-07-23T05:48:48;5.80;;;2.20;;
73557;SDS011;61829;53.286;10.434;2022-07-23T05:53:47;6.95;;;2.10;;
73557;SDS011;61829;53.286;10.434;2022-07-23T05:56:13;4.40;;;2.10;;
73557;SDS011;61829;53.286;10.434;2022-07-23T05:58:39;6.00;;;2.05;;
73557;SDS011;61829;53.286;10.434;2022-07-23T06:01:05;4.07;;;1.60;;
73557;SDS011;61829;53.286;10.434;2022-07-23T06:03:31;4.35;;;1.80;;
73557;SDS011;61829;53.286;10.434;2022-07-23T06:05:56;2.72;;;1.90;;
73557;SDS011;61829;53.286;10.434;2022-07-23T06:08:22;4.10;;;2.08;;
73557;SDS011;61829;53.286;10.434;2022-07-23T06:10:48;5.75;;;2.08;;
73557;SDS011;61829;53.286;10.434;2022-07-23T06:13:14;4.47;;;2.17;;
73557;SDS011;61829;53.286;10.434;2022-07-23T06:15:39;3.88;;;2.35;;
73557;SDS011;61829;53.286;10.434;2022-07-23T06:18:05;3.63;;;1.90;;
73557;SDS011;61829;53.286;10.434;2022-07-23T06:20:31;2.42;;;1.40;;
73557;SDS011;61829;53.286;10.434;2022-07-23T06:22:57;4.55;;;1.73;;
73557;SDS011;61829;53.286;10.434;2022-07-23T06:25:23;5.25;;;1.42;;
73557;SDS011;61829;53.286;10.434;2022-07-23T06:27:49;3.95;;;1.40;;
73557;SDS011;61829;53.286;10.434;2022-07-23T06:30:15;4.00;;;1.45;;
73557;SDS011;61829;53.286;10.434;2022-07-23T06:32:43;4.82;;;1.38;;
73557;SDS011;61829;53.286;10.434;2022-07-23T06:35:09;4.97;;;1.50;;
73557;SDS011;61829;53.286;10.434;2022-07-23T06:37:35;3.05;;;1.17;;
73557;SDS011;61829;53.286;10.434;2022-07-23T06:40:01;3.35;;;1.30;;
73557;SDS011;61829;53.286;10.434;2022-07-23T06:42:27;2.88;;;1.10;;
73557;SDS011;61829;53.286;10.434;2022-07-23T06:44:52;3.67;;;1.70;;
73557;SDS011;61829;53.286;10.434;2022-07-23T06:47:18;5.80;;;1.30;;
73557;SDS011;61829;53.286;10.434;2022-07-23T06:49:44;4.10;;;1.42;;
73557;SDS011;61829;53.286;10.434;2022-07-23T06:52:10;4.78;;;1.20;;
73557;SDS011;61829;53.286;10.434;2022-07-23T06:54:35;6.03;;;1.50;;
73557;SDS011;61829;53.286;10.434;2022-07-23T06:57:01;5.13;;;1.38;;
73557;SDS011;61829;53.286;10.434;2022-07-23T06:59:27;6.20;;;1.75;;
73557;SDS011;61829;53.286;10.434;2022-07-23T07:01:53;3.08;;;1.27;;
73557;SDS011;61829;53.286;10.434;2022-07-23T07:04:19;5.53;;;1.25;;
73557;SDS011;61829;53.286;10.434;2022-07-23T07:06:44;2.95;;;1.23;;
73557;SDS011;61829;53.286;10.434;2022-07-23T07:09:10;2.00;;;1.10;;
73557;SDS011;61829;53.286;10.434;2022-07-23T07:11:36;4.38;;;1.10;;
73557;SDS011;61829;53.286;10.434;2022-07-23T07:14:02;3.63;;;1.05;;
73557;SDS011;61829;53.286;10.434;2022-07-23T07:16:30;6.72;;;1.15;;
73557;SDS011;61829;53.286;10.434;2022-07-23T07:18:55;3.58;;;1.50;;
73557;SDS011;61829;53.286;10.434;2022-07-23T07:21:21;4.95;;;1.20;;
73557;SDS011;61829;53.286;10.434;2022-07-23T07:23:47;1.70;;;1.00;;
73557;SDS011;61829;53.286;10.434;2022-07-23T07:26:12;4.93;;;1.10;;
73557;SDS011;61829;53.286;10.434;2022-07-23T07:28:38;1.58;;;1.00;;
73557;SDS011;61829;53.286;10.434;2022-07-23T07:31:04;3.17;;;1.10;;
73557;SDS011;61829;53.286;10.434;2022-07-23T07:33:30;3.05;;;0.90;;
73557;SDS011;61829;53.286;10.434;2022-07-23T07:35:55;2.85;;;1.08;;
73557;SDS011;61829;53.286;10.434;2022-07-23T07:38:21;3.22;;;1.00;;
73557;SDS011;61829;53.286;10.434;2022-07-23T07:40:47;2.95;;;0.90;;
73557;SDS011;61829;53.286;10.434;2022-07-23T07:43:13;2.65;;;0.98;;
73557;SDS011;61829;53.286;10.434;2022-07-23T07:45:40;2.65;;;1.10;;
73557;SDS011;61829;53.286;10.434;2022-07-23T07:48:06;4.47;;;1.00;;
73557;SDS011;61829;53.286;10.434;2022-07-23T07:50:31;5.32;;;1.20;;
73557;SDS011;61829;53.286;10.434;2022-07-23T07:52:58;2.55;;;0.90;;
73557;SDS011;61829;53.286;10.434;2022-07-23T07:55:23;2.92;;;1.05;;
73557;SDS011;61829;53.286;10.434;2022-07-23T07:57:49;4.15;;;1.08;;
73557;SDS011;61829;53.286;10.434;2022-07-23T08:00:15;2.47;;;0.95;;
73557;SDS011;61829;53.286;10.434;2022-07-23T08:02:45;2.70;;;0.80;;
73557;SDS011;61829;53.286;10.434;2022-07-23T08:05:13;3.85;;;1.10;;
73557;SDS011;61829;53.286;10.434;2022-07-23T08:07:40;2.42;;;0.75;;
73557;SDS011;61829;53.286;10.434;2022-07-23T08:10:07;2.17;;;1.08;;
73557;SDS011;61829;53.286;10.434;2022-07-23T08:12:37;2.05;;;0.90;;
73557;SDS011;61829;53.286;10.434;2022-07-23T08:15:05;4.28;;;1.20;;
73557;SDS011;61829;53.286;10.434;2022-07-23T08:17:31;1.95;;;0.93;;
73557;SDS011;61829;53.286;10.434;2022-07-23T08:19:57;1.52;;;0.88;;
73557;SDS011;61829;53.286;10.434;2022-07-23T08:22:23;2.03;;;0.88;;
73557;SDS011;61829;53.286;10.434;2022-07-23T08:24:49;2.08;;;0.93;;
73557;SDS011;61829;53.286;10.434;2022-07-23T08:27:14;4.78;;;1.00;;
73557;SDS011;61829;53.286;10.434;2022-07-23T08:29:40;4.57;;;1.05;;
73557;SDS011;61829;53.286;10.434;2022-07-23T08:32:06;1.73;;;0.80;;
73557;SDS011;61829;53.286;10.434;2022-07-23T08:34:31;3.67;;;1.35;;
73557;SDS011;61829;53.286;10.434;2022-07-23T08:36:57;1.83;;;1.00;;
73557;SDS011;61829;53.286;10.434;2022-07-23T08:39:23;1.88;;;0.95;;
73557;SDS011;61829;53.286;10.434;2022-07-23T08:41:49;2.92;;;0.88;;
73557;SDS011;61829;53.286;10.434;2022-07-23T08:44:16;3.78;;;1.30;;
73557;SDS011;61829;53.286;10.434;2022-07-23T08:46:43;1.88;;;0.90;;
73557;SDS011;61829;53.286;10.434;2022-07-23T08:49:10;2.42;;;1.20;;
73557;SDS011;61829;53.286;10.434;2022-07-23T08:51:36;2.92;;;1.08;;
73557;SDS011;61829;53.286;10.434;2022-07-23T08:54:02;3.60;;;1.30;;
73557;SDS011;61829;53.286;10.434;2022-07-23T08:56:29;3.53;;;1.25;;
73557;SDS011;61829;53.286;10.434;2022-07-23T08:58:55;3.78;;;1.10;;
73557;SDS011;61829;53.286;10.434;2022-07-23T09:01:21;3.47;;;1.52;;
73557;SDS011;61829;53.286;10.434;2022-07-23T09:03:46;3.13;;;1.25;;
73557;SDS011;61829;53.286;10.434;2022-07-23T09:06:12;2.13;;;1.10;;
73557;SDS011;61829;53.286;10.434;2022-07-23T09:08:42;3.38;;;1.40;;
73557;SDS011;61829;53.286;10.434;2022-07-23T09:11:09;2.38;;;1.20;;
73557;SDS011;61829;53.286;10.434;2022-07-23T09:16:12;1.83;;;0.90;;
73557;SDS011;61829;53.286;10.434;2022-07-23T09:18:46;3.45;;;1.17;;
73557;SDS011;61829;53.286;10.434;2022-07-23T09:21:16;3.15;;;1.10;;
73557;SDS011;61829;53.286;10.434;2022-07-23T09:26:25;3.67;;;1.30;;
73557;SDS011;61829;53.286;10.434;2022-07-23T09:28:59;3.13;;;1.20;;
73557;SDS011;61829;53.286;10.434;2022-07-23T09:31:35;4.30;;;1.40;;
73557;SDS011;61829;53.286;10.434;2022-07-23T09:34:18;2.25;;;1.10;;
73557;SDS011;61829;53.286;10.434;2022-07-23T09:36:44;3.53;;;1.10;;
73557;SDS011;61829;53.286;10.434;2022-07-23T09:39:11;3.83;;;1.30;;
73557;SDS011;61829;53.286;10.434;2022-07-23T09:41:43;3.53;;;1.40;;
73557;SDS011;61829;53.286;10.434;2022-07-23T09:44:11;1.75;;;1.00;;
73557;SDS011;61829;53.286;10.434;2022-07-23T09:46:39;2.35;;;1.30;;
73557;SDS011;61829;53.286;10.434;2022-07-23T09:49:15;3.33;;;1.25;;
73557;SDS011;61829;53.286;10.434;2022-07-23T09:54:47;2.35;;;1.15;;
73557;SDS011;61829;53.286;10.434;2022-07-23T09:57:09;5.13;;;0.88;;
73557;SDS011;61829;53.286;10.434;2022-07-23T09:59:46;1.33;;;0.82;;
73557;SDS011;61829;53.286;10.434;2022-07-23T10:02:13;2.75;;;1.10;;
73557;SDS011;61829;53.286;10.434;2022-07-23T10:04:40;3.00;;;1.08;;
73557;SDS011;61829;53.286;10.434;2022-07-23T10:07:07;3.60;;;1.15;;
73557;SDS011;61829;53.286;10.434;2022-07-23T10:09:36;4.82;;;1.00;;
73557;SDS011;61829;53.286;10.434;2022-07-23T10:12:05;1.83;;;0.90;;
73557;SDS011;61829;53.286;10.434;2022-07-23T10:14:54;6.05;;;3.33;;
73557;SDS011;61829;53.286;10.434;2022-07-23T10:17:22;8.02;;;3.42;;
73557;SDS011;61829;53.286;10.434;2022-07-23T10:19:49;2.15;;;1.30;;
73557;SDS011;61829;53.286;10.434;2022-07-23T10:22:19;3.90;;;1.23;;
73557;SDS011;61829;53.286;10.434;2022-07-23T10:38:25;3.65;;;0.90;;
73557;SDS011;61829;53.286;10.434;2022-07-23T10:40:56;1.13;;;0.77;;
73557;SDS011;61829;53.286;10.434;2022-07-23T10:43:27;1.85;;;0.77;;
73557;SDS011;61829;53.286;10.434;2022-07-23T10:59:22;0.70;;;0.70;;
73557;SDS011;61829;53.286;10.434;2022-07-23T11:01:48;6.43;;;3.15;;
73557;SDS011;61829;53.286;10.434;2022-07-23T11:04:15;2.90;;;1.00;;
73557;SDS011;61829;53.286;10.434;2022-07-23T11:12:31;1.52;;;0.80;;
73557;SDS011;61829;53.286;10.434;2022-07-23T11:25:31;1.80;;;0.90;;
73557;SDS011;61829;53.286;10.434;2022-07-23T11:28:08;2.95;;;0.75;;
73557;SDS011;61829;53.286;10.434;2022-07-23T11:35:33;2.33;;;0.98;;
73557;SDS011;61829;53.286;10.434;2022-07-23T11:38:07;1.27;;;0.80;;
73557;SDS011;61829;53.286;10.434;2022-07-23T11:40:45;1.58;;;0.80;;
73557;SDS011;61829;53.286;10.434;2022-07-23T11:43:14;0.80;;;0.70;;
73557;SDS011;61829;53.286;10.434;2022-07-23T11:45:45;2.88;;;0.77;;
73557;SDS011;61829;53.286;10.434;2022-07-23T11:48:17;1.60;;;0.90;;
73557;SDS011;61829;53.286;10.434;2022-07-23T11:50:47;1.13;;;0.60;;
73557;SDS011;61829;53.286;10.434;2022-07-23T11:53:15;2.03;;;0.80;;
73557;SDS011;61829;53.286;10.434;2022-07-23T11:55:47;1.13;;;0.70;;
73557;SDS011;61829;53.286;10.434;2022-07-23T11:58:13;1.55;;;0.70;;
73557;SDS011;61829;53.286;10.434;2022-07-23T12:00:40;1.77;;;0.70;;
73557;SDS011;61829;53.286;10.434;2022-07-23T12:03:07;3.35;;;0.80;;
73557;SDS011;61829;53.286;10.434;2022-07-23T12:05:37;3.58;;;0.60;;
73557;SDS011;61829;53.286;10.434;2022-07-23T12:08:05;0.93;;;0.60;;
73557;SDS011;61829;53.286;10.434;2022-07-23T12:13:09;2.25;;;0.75;;
73557;SDS011;61829;53.286;10.434;2022-07-23T12:15:48;1.73;;;0.80;;
73557;SDS011;61829;53.286;10.434;2022-07-23T12:18:25;0.82;;;0.70;;
73557;SDS011;61829;53.286;10.434;2022-07-23T12:20:53;3.30;;;0.65;;
73557;SDS011;61829;53.286;10.434;2022-07-23T12:23:22;1.35;;;0.63;;
73557;SDS011;61829;53.286;10.434;2022-07-23T12:25:49;3.15;;;0.60;;
73557;SDS011;61829;53.286;10.434;2022-07-23T12:30:44;1.55;;;0.70;;
73557;SDS011;61829;53.286;10.434;2022-07-23T12:33:15;0.60;;;0.60;;
73557;SDS011;61829;53.286;10.434;2022-07-23T12:35:56;1.20;;;0.63;;
73557;SDS011;61829;53.286;10.434;2022-07-23T12:38:27;0.50;;;0.50;;
73557;SDS011;61829;53.286;10.434;2022-07-23T12:40:57;1.58;;;0.60;;
73557;SDS011;61829;53.286;10.434;2022-07-23T12:45:56;0.80;;;0.57;;
73557;SDS011;61829;53.286;10.434;2022-07-23T12:48:26;0.40;;;0.40;;
73557;SDS011;61829;53.286;10.434;2022-07-23T12:51:04;1.15;;;0.70;;
73557;SDS011;61829;53.286;10.434;2022-07-23T12:53:31;1.52;;;0.60;;
73557;SDS011;61829;53.286;10.434;2022-07-23T12:56:00;0.90;;;0.60;;
73557;SDS011;61829;53.286;10.434;2022-07-23T12:59:19;1.00;;;0.65;;
73557;SDS011;61829;53.286;10.434;2022-07-23T13:01:29;2.58;;;0.90;;
73557;SDS011;61829;53.286;10.434;2022-07-23T13:04:10;2.05;;;0.65;;
73557;SDS011;61829;53.286;10.434;2022-07-23T13:06:37;0.90;;;0.40;;
73557;SDS011;61829;53.286;10.434;2022-07-23T13:09:05;0.90;;;0.60;;
73557;SDS011;61829;53.286;10.434;2022-07-23T13:11:32;1.65;;;0.70;;
73557;SDS011;61829;53.286;10.434;2022-07-23T13:16:29;1.55;;;0.50;;
73557;SDS011;61829;53.286;10.434;2022-07-23T13:18:57;0.70;;;0.57;;
73557;SDS011;61829;53.286;10.434;2022-07-23T13:21:28;1.15;;;0.70;;
73557;SDS011;61829;53.286;10.434;2022-07-23T13:23:54;1.88;;;0.55;;
73557;SDS011;61829;53.286;10.434;2022-07-23T13:26:21;1.38;;;0.55;;
73557;SDS011;61829;53.286;10.434;2022-07-23T13:28:47;1.75;;;0.60;;
73557;SDS011;61829;53.286;10.434;2022-07-23T13:31:13;1.73;;;0.70;;
73557;SDS011;61829;53.286;10.434;2022-07-23T13:33:39;1.40;;;0.60;;
73557;SDS011;61829;53.286;10.434;2022-07-23T13:36:05;1.83;;;0.90;;
73557;SDS011;61829;53.286;10.434;2022-07-23T13:38:31;1.42;;;0.50;;
73557;SDS011;61829;53.286;10.434;2022-07-23T13:40:57;1.23;;;0.80;;
73557;SDS011;61829;53.286;10.434;2022-07-23T13:43:24;3.38;;;1.00;;
73557;SDS011;61829;53.286;10.434;2022-07-23T13:45:51;2.25;;;1.08;;
73557;SDS011;61829;53.286;10.434;2022-07-23T13:48:18;1.98;;;0.60;;
73557;SDS011;61829;53.286;10.434;2022-07-23T13:50:45;1.25;;;0.65;;
73557;SDS011;61829;53.286;10.434;2022-07-23T13:55:39;1.15;;;0.60;;
73557;SDS011;61829;53.286;10.434;2022-07-23T13:58:07;2.25;;;0.63;;
73557;SDS011;61829;53.286;10.434;2022-07-23T14:00:35;1.55;;;0.60;;
73557;SDS011;61829;53.286;10.434;2022-07-23T14:03:02;1.80;;;0.60;;
73557;SDS011;61829;53.286;10.434;2022-07-23T14:05:28;2.03;;;0.70;;
73557;SDS011;61829;53.286;10.434;2022-07-23T14:07:54;0.93;;;0.50;;
73557;SDS011;61829;53.286;10.434;2022-07-23T14:10:21;2.25;;;0.88;;
73557;SDS011;61829;53.286;10.434;2022-07-23T14:12:50;1.88;;;0.85;;
73557;SDS011;61829;53.286;10.434;2022-07-23T14:15:18;2.17;;;1.00;;
73557;SDS011;61829;53.286;10.434;2022-07-23T14:17:45;4.28;;;0.90;;
73557;SDS011;61829;53.286;10.434;2022-07-23T14:20:12;3.38;;;0.93;;
73557;SDS011;61829;53.286;10.434;2022-07-23T14:22:39;3.13;;;1.35;;
73557;SDS011;61829;53.286;10.434;2022-07-23T14:25:05;1.30;;;0.80;;
73557;SDS011;61829;53.286;10.434;2022-07-23T14:27:32;2.05;;;0.65;;
73557;SDS011;61829;53.286;10.434;2022-07-23T14:29:58;1.58;;;0.85;;
73557;SDS011;61829;53.286;10.434;2022-07-23T14:32:24;2.10;;;0.80;;
73557;SDS011;61829;53.286;10.434;2022-07-23T14:34:50;2.10;;;0.90;;
73557;SDS011;61829;53.286;10.434;2022-07-23T14:37:17;2.42;;;1.02;;
73557;SDS011;61829;53.286;10.434;2022-07-23T14:39:43;1.33;;;0.73;;
73557;SDS011;61829;53.286;10.434;2022-07-23T14:42:11;0.93;;;0.85;;
73557;SDS011;61829;53.286;10.434;2022-07-23T14:44:38;2.88;;;0.93;;
73557;SDS011;61829;53.286;10.434;2022-07-23T14:47:04;2.28;;;1.15;;
73557;SDS011;61829;53.286;10.434;2022-07-23T14:49:31;2.78;;;0.98;;
73557;SDS011;61829;53.286;10.434;2022-07-23T14:51:57;2.58;;;0.80;;
73557;SDS011;61829;53.286;10.434;2022-07-23T14:56:55;1.88;;;1.35;;
73557;SDS011;61829;53.286;10.434;2022-07-23T14:59:22;0.73;;;0.65;;
73557;SDS011;61829;53.286;10.434;2022-07-23T15:01:49;2.78;;;1.10;;
73557;SDS011;61829;53.286;10.434;2022-07-23T15:04:15;2.28;;;1.00;;
73557;SDS011;61829;53.286;10.434;2022-07-23T15:06:41;3.35;;;0.90;;
73557;SDS011;61829;53.286;10.434;2022-07-23T15:09:08;1.35;;;0.90;;
73557;SDS011;61829;53.286;10.434;2022-07-23T15:11:34;1.95;;;1.00;;
73557;SDS011;61829;53.286;10.434;2022-07-23T15:14:05;4.30;;;1.02;;
73557;SDS011;61829;53.286;10.434;2022-07-23T15:16:30;1.80;;;0.85;;
73557;SDS011;61829;53.286;10.434;2022-07-23T15:18:58;1.35;;;0.80;;
73557;SDS011;61829;53.286;10.434;2022-07-23T15:21:24;2.22;;;0.93;;
73557;SDS011;61829;53.286;10.434;2022-07-23T15:23:49;1.92;;;0.80;;
73557;SDS011;61829;53.286;10.434;2022-07-23T15:26:17;1.10;;;0.80;;
73557;SDS011;61829;53.286;10.434;2022-07-23T15:28:43;2.60;;;1.00;;
73557;SDS011;61829;53.286;10.434;2022-07-23T15:31:09;3.10;;;0.80;;
73557;SDS011;61829;53.286;10.434;2022-07-23T15:33:35;4.15;;;1.00;;
73557;SDS011;61829;53.286;10.434;2022-07-23T15:36:02;3.53;;;0.90;;
73557;SDS011;61829;53.286;10.434;2022-07-23T15:38:28;4.72;;;1.23;;
73557;SDS011;61829;53.286;10.434;2022-07-23T15:40:54;1.10;;;0.70;;
73557;SDS011;61829;53.286;10.434;2022-07-23T15:43:21;0.88;;;0.63;;
73557;SDS011;61829;53.286;10.434;2022-07-23T15:45:48;4.18;;;0.90;;
73557;SDS011;61829;53.286;10.434;2022-07-23T15:50:40;4.80;;;2.80;;